KSPS

Sheppard AFB / Wichita Falls Municipal Airport

Wichita Falls, Texas, USA
KSPS 210520Z 2106/2206 13015KT P6SM VCSH OVC060 TEMPO 2106/2109 3SM TSRA BR OVC025CB FM210900 12014KT 3SM TSRA BR OVC025CB FM211300 10012KT 4SM -TSRA BR OVC012CB FM212200 05012KT 6SM -RA BR OVC008
Issued Valid From Valid To
Apr-21 @ 05:20 UTC
(4 hours ago)
Apr-21 @ 06:00 UTC
(4 hours ago)
Apr-22 @ 06:00 UTC
(in 20 hours)
Expired Click to View Apr-21 @ 06:00 to Apr-21 @ 09:00
KSPS 210520Z 2106/2206 13015KT P6SM VCSH OVC060
Wind Visibility Clouds
130° at 15 knots Greater than 6 miles
  • Overcast at 6,000' AGL
Expired Click to View Apr-21 @ 06:00 to Apr-21 @ 09:00
TEMPO 2106/2109 3SM TSRA BR OVC025CB
Visibility Clouds Conditions
3 miles
  • Overcast at 2,500' AGL
  • Thunderstorm
  • Rain
  • Mist
From Apr-21 @ 09:00 to Apr-21 @ 13:00
FM210900 12014KT 3SM TSRA BR OVC025CB
Wind Visibility Clouds Conditions
120° at 14 knots 3 miles
  • Overcast at 2,500' AGL
  • Thunderstorm
  • Rain
  • Mist
From Apr-21 @ 13:00 to Apr-21 @ 22:00
FM211300 10012KT 4SM -TSRA BR OVC012CB
Wind Visibility Clouds Conditions
100° at 12 knots 4 miles
  • Overcast at 1,200' AGL
  • Light Thunderstorm
  • Light Rain
  • Mist
From Apr-21 @ 22:00 to Apr-22 @ 06:00
FM212200 05012KT 6SM -RA BR OVC008
Wind Visibility Clouds Conditions
50° at 12 knots 6 miles
  • Overcast at 800' AGL
  • Light Rain
  • Mist
KSPS 210520Z 2106/2206 13015KT P6SM VCSH OVC060 TEMPO 2106/2109 3SM TSRA BR OVC025CB FM210900 12014KT 3SM TSRA BR OVC025CB FM211300 10012KT 4SM -TSRA BR OVC012CB FM212200 05012KT 6SM -RA BR OVC008
Issued Apr-21 @ 05:20 UTC
(4 hours ago)
Valid From Apr-21 @ 06:00 UTC
(4 hours ago)
Valid To Apr-22 @ 06:00 UTC
(in 20 hours)
Apr-21 @ 06:00 - Apr-21 @ 09:00
Wind Visibility
130° at 15 knots Greater than 6 miles
Clouds
  • Overcast at 6,000' AGL
Apr-21 @ 06:00 - Apr-21 @ 09:00
Clouds
  • Overcast at 2,500' AGL
Conditions
  • Thunderstorm
  • Rain
  • Mist
From Apr-21 @ 09:00 - Apr-21 @ 13:00
Wind Visibility
120° at 14 knots 3 miles
Clouds
  • Overcast at 2,500' AGL
Conditions
  • Thunderstorm
  • Rain
  • Mist
From Apr-21 @ 13:00 - Apr-21 @ 22:00
Wind Visibility
100° at 12 knots 4 miles
Clouds
  • Overcast at 1,200' AGL
Conditions
  • Light Thunderstorm
  • Light Rain
  • Mist
From Apr-21 @ 22:00 - Apr-22 @ 06:00
Wind Visibility
50° at 12 knots 6 miles
Clouds
  • Overcast at 800' AGL
Conditions
  • Light Rain
  • Mist